createdAt,value
2023-04-22T00:02:01.872Z,11.30
2023-04-22T00:04:29.091Z,9.27
2023-04-22T00:06:56.662Z,8.93
2023-04-22T00:09:24.017Z,7.82
2023-04-22T00:11:50.599Z,8.95
2023-04-22T00:14:17.198Z,9.80
2023-04-22T00:16:43.853Z,10.05
2023-04-22T00:19:10.484Z,11.73
2023-04-22T00:21:37.056Z,9.48
2023-04-22T00:24:03.687Z,10.70
2023-04-22T00:26:30.263Z,9.13
2023-04-22T00:28:57.295Z,9.43
2023-04-22T00:31:23.879Z,7.25
2023-04-22T00:33:50.523Z,9.05
2023-04-22T00:36:17.080Z,9.73
2023-04-22T00:38:50.001Z,9.98
2023-04-22T00:41:17.014Z,12.02
2023-04-22T00:43:43.974Z,9.57
2023-04-22T00:46:10.574Z,10.30
2023-04-22T00:48:41.313Z,10.57
2023-04-22T00:51:07.988Z,10.70
2023-04-22T00:53:34.557Z,9.50
2023-04-22T00:56:01.205Z,9.98
2023-04-22T00:58:29.851Z,12.13
2023-04-22T01:00:56.849Z,10.77
2023-04-22T01:03:24.428Z,11.27
2023-04-22T01:05:51.262Z,9.15
2023-04-22T01:08:17.890Z,10.57
2023-04-22T01:10:44.449Z,8.57
2023-04-22T01:13:11.099Z,10.02
2023-04-22T01:15:37.974Z,13.10
2023-04-22T01:18:04.814Z,12.15
2023-04-22T01:20:31.909Z,10.93
2023-04-22T01:23:03.139Z,13.35
2023-04-22T01:25:29.882Z,10.98
2023-04-22T01:27:57.014Z,11.38
2023-04-22T01:30:23.633Z,10.27
2023-04-22T01:32:50.701Z,11.10
2023-04-22T01:35:17.264Z,9.98
2023-04-22T01:37:44.574Z,14.02
2023-04-22T01:40:11.719Z,13.77
2023-04-22T01:42:39.085Z,13.05
2023-04-22T01:45:06.107Z,9.70
2023-04-22T01:47:32.626Z,14.73
2023-04-22T01:49:59.141Z,12.30
2023-04-22T01:52:27.679Z,13.43
2023-04-22T01:54:55.151Z,10.88
2023-04-22T01:57:21.664Z,10.52
2023-04-22T01:59:48.175Z,11.70
2023-04-22T02:02:14.804Z,9.70
2023-04-22T02:04:41.380Z,11.52
2023-04-22T02:07:07.968Z,12.88
2023-04-22T02:09:34.864Z,15.75
2023-04-22T02:12:01.638Z,9.93
2023-04-22T02:14:28.249Z,10.60
2023-04-22T02:16:54.835Z,11.90
2023-04-22T02:19:21.426Z,13.88
2023-04-22T02:21:47.994Z,13.93
2023-04-22T02:24:14.654Z,12.27
2023-04-22T02:26:41.553Z,10.60
2023-04-22T02:29:08.055Z,14.07
2023-04-22T02:31:34.688Z,10.10
2023-04-22T02:34:01.270Z,10.73
2023-04-22T02:36:28.730Z,8.35
2023-04-22T02:38:55.603Z,12.68
2023-04-22T02:41:22.183Z,10.38
2023-04-22T02:43:48.936Z,10.95
2023-04-22T02:46:18.806Z,12.63
2023-04-22T02:48:45.424Z,10.63
2023-04-22T02:51:12.094Z,11.30
2023-04-22T02:53:38.643Z,11.93
2023-04-22T02:56:05.760Z,11.65
2023-04-22T02:58:32.395Z,12.27
2023-04-22T03:00:59.158Z,10.00
2023-04-22T03:03:26.669Z,10.52
2023-04-22T03:05:53.410Z,11.38
2023-04-22T03:08:20.383Z,13.00
2023-04-22T03:10:46.911Z,13.40
2023-04-22T03:13:14.354Z,12.52
2023-04-22T03:15:41.498Z,11.25
2023-04-22T03:18:08.724Z,10.13
2023-04-22T03:20:36.117Z,10.07
2023-04-22T03:23:02.756Z,8.02
2023-04-22T03:25:29.366Z,12.93
2023-04-22T03:27:56.047Z,9.90
2023-04-22T03:30:22.794Z,8.98
2023-04-22T03:32:49.441Z,11.40
2023-04-22T03:35:16.216Z,7.93
2023-04-22T03:37:42.863Z,11.30
2023-04-22T03:40:10.149Z,11.35
2023-04-22T03:42:36.640Z,10.15
2023-04-22T03:45:03.654Z,13.10
2023-04-22T03:47:30.360Z,12.25
2023-04-22T03:49:57.051Z,12.30
2023-04-22T03:52:23.615Z,14.38
2023-04-22T03:54:50.264Z,10.70
2023-04-22T03:57:16.822Z,13.15
2023-04-22T03:59:43.334Z,9.73
2023-04-22T04:02:09.912Z,10.90
2023-04-22T04:04:37.082Z,12.20
2023-04-22T04:07:04.030Z,10.00
2023-04-22T04:09:30.642Z,10.02
2023-04-22T04:11:58.144Z,9.77
2023-04-22T04:14:24.930Z,14.35
2023-04-22T04:16:51.522Z,10.90
2023-04-22T04:19:18.115Z,16.98
2023-04-22T04:21:45.437Z,18.60
2023-04-22T04:24:12.062Z,15.27
2023-04-22T04:26:38.819Z,21.83
2023-04-22T04:29:06.357Z,17.58
2023-04-22T04:31:34.055Z,21.30
2023-04-22T04:34:00.955Z,15.45
2023-04-22T04:36:29.063Z,16.58
2023-04-22T04:38:56.448Z,17.23
2023-04-22T04:41:23.470Z,17.73
2023-04-22T04:43:50.449Z,19.52
2023-04-22T04:46:16.969Z,20.27
2023-04-22T04:48:43.937Z,15.30
2023-04-22T04:51:11.693Z,15.20
2023-04-22T04:53:38.302Z,10.52
2023-04-22T04:56:05.147Z,10.18
2023-04-22T04:58:31.724Z,14.80
2023-04-22T05:00:58.280Z,17.30
2023-04-22T05:03:24.945Z,12.85
2023-04-22T05:05:51.821Z,19.58
2023-04-22T05:08:18.360Z,16.95
2023-04-22T05:10:45.201Z,14.20
2023-04-22T05:13:11.707Z,12.43
2023-04-22T05:15:38.320Z,12.07
2023-04-22T05:18:06.365Z,14.35
2023-04-22T05:20:35.387Z,15.68
2023-04-22T05:23:02.698Z,23.58
2023-04-22T05:25:29.289Z,14.52
2023-04-22T05:27:55.831Z,14.30
2023-04-22T05:30:22.421Z,14.68
2023-04-22T05:32:49.150Z,16.58
2023-04-22T05:35:15.786Z,14.65
2023-04-22T05:37:42.308Z,13.57
2023-04-22T05:40:09.446Z,14.75
2023-04-22T05:42:36.005Z,20.05
2023-04-22T05:45:02.537Z,22.77
2023-04-22T05:47:30.319Z,19.38
2023-04-22T05:49:56.959Z,20.48
2023-04-22T05:52:23.470Z,13.15
2023-04-22T05:54:50.053Z,17.83
2023-04-22T05:57:16.702Z,15.32
2023-04-22T05:59:43.435Z,16.73
2023-04-22T06:02:10.368Z,19.50
2023-04-22T06:04:37.945Z,16.92
2023-04-22T06:07:04.916Z,14.20
2023-04-22T06:09:31.513Z,18.17
2023-04-22T06:11:58.266Z,21.48
2023-04-22T06:14:24.825Z,12.65
2023-04-22T06:16:52.884Z,14.52
2023-04-22T06:19:19.862Z,16.63
2023-04-22T06:21:46.424Z,14.05
2023-04-22T06:24:13.024Z,14.57
2023-04-22T06:26:39.641Z,11.40
2023-04-22T06:29:06.200Z,17.60
2023-04-22T06:31:33.111Z,8.73
2023-04-22T06:33:59.657Z,13.95
2023-04-22T06:36:30.276Z,9.95
2023-04-22T06:38:57.234Z,13.55
2023-04-22T06:41:23.846Z,13.73
2023-04-22T06:43:50.526Z,12.30
2023-04-22T06:46:17.793Z,8.80
2023-04-22T06:48:44.389Z,17.23
2023-04-22T06:51:10.981Z,13.52
2023-04-22T06:53:37.570Z,10.35
2023-04-22T06:56:05.076Z,8.07
2023-04-22T06:58:31.678Z,11.85
2023-04-22T07:00:58.355Z,8.48
2023-04-22T07:03:26.216Z,12.35
2023-04-22T07:05:53.022Z,8.23
2023-04-22T07:08:19.828Z,9.52
2023-04-22T07:10:46.388Z,9.90
2023-04-22T07:13:12.988Z,7.60
2023-04-22T07:15:39.521Z,5.53
2023-04-22T07:18:06.248Z,5.88
2023-04-22T07:20:32.894Z,4.75
2023-04-22T07:22:59.425Z,4.80
2023-04-22T07:25:25.949Z,5.07
2023-04-22T07:27:52.536Z,8.98
2023-04-22T07:30:19.129Z,7.78
2023-04-22T07:32:48.225Z,6.88
2023-04-22T07:35:15.458Z,5.30
2023-04-22T07:37:42.104Z,6.53
2023-04-22T07:40:11.907Z,7.72
2023-04-22T07:42:40.143Z,3.42
2023-04-22T07:45:07.621Z,4.40
2023-04-22T07:47:34.473Z,5.25
2023-04-22T07:50:01.081Z,7.47
2023-04-22T07:52:27.678Z,3.63
2023-04-22T07:54:54.261Z,2.90
2023-04-22T07:57:22.553Z,2.72
2023-04-22T07:59:49.872Z,2.97
2023-04-22T08:02:16.477Z,10.30
2023-04-22T08:04:43.590Z,2.63
2023-04-22T08:07:26.924Z,7.40
2023-04-22T08:09:57.023Z,2.92
2023-04-22T08:12:23.854Z,3.60
2023-04-22T08:14:50.882Z,2.20
2023-04-22T08:17:21.700Z,1.85
2023-04-22T08:19:49.078Z,2.17
2023-04-22T08:22:16.178Z,3.00
2023-04-22T08:24:42.755Z,3.00
2023-04-22T08:27:09.360Z,7.32
2023-04-22T08:29:36.150Z,2.20
2023-04-22T08:32:02.761Z,2.83
2023-04-22T08:34:29.310Z,5.45
2023-04-22T08:36:55.897Z,2.42
2023-04-22T08:39:22.440Z,4.32
2023-04-22T08:41:50.580Z,2.75
2023-04-22T08:44:17.371Z,4.13
2023-04-22T08:46:47.002Z,3.50
2023-04-22T08:49:17.175Z,2.03
2023-04-22T08:51:44.780Z,3.70
2023-04-22T08:54:12.095Z,4.47
2023-04-22T08:56:43.863Z,2.00
2023-04-22T08:59:11.876Z,2.03
2023-04-22T09:01:41.291Z,2.25
2023-04-22T09:04:10.631Z,4.90
2023-04-22T09:06:38.856Z,3.30
2023-04-22T09:09:05.521Z,4.05
2023-04-22T09:11:33.840Z,4.63
2023-04-22T09:14:00.388Z,3.15
2023-04-22T09:16:26.998Z,3.53
2023-04-22T09:18:53.650Z,3.15
2023-04-22T09:21:20.346Z,4.10
2023-04-22T09:23:52.247Z,5.53
2023-04-22T09:26:26.470Z,4.95
2023-04-22T09:28:55.440Z,4.72
2023-04-22T09:31:24.058Z,3.17
2023-04-22T09:33:58.742Z,2.75
2023-04-22T09:36:29.338Z,2.13
2023-04-22T09:38:58.616Z,2.97
2023-04-22T09:41:41.087Z,5.13
2023-04-22T09:44:15.874Z,5.25
2023-04-22T09:46:44.087Z,7.25
2023-04-22T09:49:10.921Z,2.83
2023-04-22T09:51:41.304Z,4.28
2023-04-22T09:54:10.301Z,10.32
2023-04-22T09:56:48.373Z,5.55
2023-04-22T09:59:20.558Z,5.18
2023-04-22T10:01:47.401Z,5.72
2023-04-22T10:04:15.089Z,4.63
2023-04-22T10:06:44.054Z,3.88
2023-04-22T10:09:11.120Z,3.08
2023-04-22T10:11:38.242Z,4.03
2023-04-22T10:14:05.446Z,2.47
2023-04-22T10:16:34.780Z,8.35
2023-04-22T10:19:04.588Z,4.55
2023-04-22T10:21:32.570Z,3.22
2023-04-22T10:24:00.812Z,3.22
2023-04-22T10:26:41.400Z,5.00
2023-04-22T10:29:10.797Z,4.05
2023-04-22T10:31:40.129Z,3.25
2023-04-22T10:34:14.675Z,4.93
2023-04-22T10:36:53.195Z,2.97
2023-04-22T10:39:22.075Z,5.05
2023-04-22T10:41:58.294Z,3.33
2023-04-22T10:44:29.041Z,4.10
2023-04-22T10:46:56.763Z,2.30
2023-04-22T10:49:25.613Z,6.60
2023-04-22T10:51:54.291Z,10.40
2023-04-22T10:54:32.346Z,2.90
2023-04-22T10:57:10.882Z,5.82
2023-04-22T10:59:50.096Z,8.05
2023-04-22T11:02:18.139Z,4.38
2023-04-22T11:04:45.212Z,6.10
2023-04-22T11:07:22.758Z,4.93
2023-04-22T11:09:59.757Z,4.65
2023-04-22T11:12:35.067Z,3.58
2023-04-22T11:15:05.684Z,1.85
2023-04-22T11:17:32.878Z,2.35
2023-04-22T11:20:00.013Z,3.78
2023-04-22T11:22:27.026Z,3.28
2023-04-22T11:24:57.797Z,3.50
2023-04-22T11:27:27.661Z,7.28
2023-04-22T11:30:04.801Z,4.40
2023-04-22T11:32:32.162Z,4.45
2023-04-22T11:34:58.828Z,3.80
2023-04-22T11:37:25.577Z,3.42
2023-04-22T11:40:13.517Z,4.90
2023-04-22T11:42:39.732Z,3.00
2023-04-22T11:45:07.704Z,3.15
2023-04-22T11:47:35.339Z,2.58
2023-04-22T11:50:06.919Z,6.40
2023-04-22T11:52:45.737Z,4.30
2023-04-22T11:55:30.149Z,5.00
2023-04-22T11:57:57.899Z,4.75
2023-04-22T12:00:33.243Z,5.10
2023-04-22T12:03:15.578Z,3.92
2023-04-22T12:05:44.870Z,6.57
2023-04-22T12:08:16.602Z,4.50
2023-04-22T12:10:47.624Z,5.25
2023-04-22T12:13:31.548Z,6.00
2023-04-22T12:15:59.856Z,5.20
2023-04-22T12:18:37.484Z,4.60
2023-04-22T12:21:07.065Z,5.75
2023-04-22T12:23:48.507Z,6.80
2023-04-22T12:26:16.592Z,7.05
2023-04-22T12:28:44.152Z,3.63
2023-04-22T12:31:11.547Z,4.45
2023-04-22T12:33:38.609Z,5.25
2023-04-22T12:36:05.947Z,4.78
2023-04-22T12:38:32.827Z,5.35
2023-04-22T12:40:59.701Z,4.88
2023-04-22T12:43:26.427Z,5.60
2023-04-22T12:45:52.988Z,6.47
2023-04-22T12:48:19.645Z,7.68
2023-04-22T12:50:46.433Z,3.25
2023-04-22T12:53:13.092Z,11.25
2023-04-22T12:55:39.862Z,3.80
2023-04-22T12:58:06.499Z,3.35
2023-04-22T13:00:33.479Z,4.53
2023-04-22T13:03:00.311Z,3.65
2023-04-22T13:05:27.021Z,3.75
2023-04-22T13:08:05.723Z,3.20
2023-04-22T13:10:33.614Z,6.47
2023-04-22T13:13:10.225Z,5.07
2023-04-22T13:15:42.382Z,5.78
2023-04-22T13:18:09.084Z,4.45
2023-04-22T13:20:36.088Z,4.93
2023-04-22T13:23:04.714Z,6.50
2023-04-22T13:25:31.771Z,3.70
2023-04-22T13:27:58.327Z,3.78
2023-04-22T13:30:24.914Z,4.70
2023-04-22T13:32:52.053Z,4.38
2023-04-22T13:35:18.712Z,4.85
2023-04-22T13:37:46.322Z,4.05
2023-04-22T13:40:13.141Z,2.60
2023-04-22T13:42:39.869Z,2.95
2023-04-22T13:45:07.545Z,6.47
2023-04-22T13:47:34.196Z,3.22
2023-04-22T13:50:01.922Z,5.07
2023-04-22T13:52:29.137Z,4.35
2023-04-22T13:54:55.808Z,4.25
2023-04-22T13:57:23.372Z,3.28
2023-04-22T13:59:50.489Z,4.25
2023-04-22T14:02:17.296Z,5.97
2023-04-22T14:04:43.967Z,4.03
2023-04-22T14:07:11.255Z,5.55
2023-04-22T14:09:38.153Z,4.85
2023-04-22T14:12:06.679Z,8.68
2023-04-22T14:14:33.276Z,6.18
2023-04-22T14:17:00.165Z,5.65
2023-04-22T14:19:29.024Z,3.33
2023-04-22T14:21:56.275Z,11.30
2023-04-22T14:24:24.382Z,8.88
2023-04-22T14:26:52.535Z,7.47
2023-04-22T14:29:19.522Z,5.53
2023-04-22T14:31:46.456Z,7.88
2023-04-22T14:34:13.084Z,10.90
2023-04-22T14:36:39.616Z,10.98
2023-04-22T14:39:06.137Z,10.32
2023-04-22T14:41:32.733Z,8.77
2023-04-22T14:43:59.306Z,7.88
2023-04-22T14:46:26.004Z,9.70
2023-04-22T14:48:52.675Z,5.88
2023-04-22T14:51:19.255Z,8.07
2023-04-22T14:53:45.854Z,5.72
2023-04-22T14:56:12.634Z,8.95
2023-04-22T14:58:39.152Z,9.77
2023-04-22T15:01:07.380Z,5.75
2023-04-22T15:03:35.889Z,8.75
2023-04-22T15:06:03.199Z,5.22
2023-04-22T15:08:29.842Z,7.57
2023-04-22T15:10:59.686Z,7.43
2023-04-22T15:13:26.314Z,5.90
2023-04-22T15:15:52.991Z,4.70
2023-04-22T15:18:19.771Z,6.85
2023-04-22T15:20:46.332Z,5.20
2023-04-22T15:23:12.980Z,9.15
2023-04-22T15:25:39.759Z,5.50
2023-04-22T15:28:06.353Z,6.93
2023-04-22T15:30:32.949Z,5.60
2023-04-22T15:32:59.577Z,4.25
2023-04-22T15:35:26.202Z,9.02
2023-04-22T15:37:54.162Z,8.52
2023-04-22T15:40:20.979Z,8.43
2023-04-22T15:42:47.527Z,4.28
2023-04-22T15:45:14.099Z,6.00
2023-04-22T15:47:41.280Z,5.20
2023-04-22T15:50:09.745Z,6.00
2023-04-22T15:52:38.262Z,6.65
2023-04-22T15:55:07.844Z,3.72
2023-04-22T15:57:35.518Z,4.30
2023-04-22T16:00:11.863Z,6.53
2023-04-22T16:02:41.018Z,9.02
2023-04-22T16:05:08.140Z,6.13
2023-04-22T16:07:34.974Z,6.45
2023-04-22T16:10:02.144Z,4.40
2023-04-22T16:12:28.894Z,4.90
2023-04-22T16:14:55.452Z,4.60
2023-04-22T16:17:22.134Z,3.30
2023-04-22T16:19:49.077Z,4.30
2023-04-22T16:22:15.687Z,3.47
2023-04-22T16:24:44.184Z,15.00
2023-04-22T16:27:16.428Z,5.93
2023-04-22T16:29:43.725Z,9.73
2023-04-22T16:32:10.838Z,12.90
2023-04-22T16:34:38.390Z,5.35
2023-04-22T16:37:05.610Z,3.35
2023-04-22T16:39:32.445Z,10.88
2023-04-22T16:41:59.200Z,13.75
2023-04-22T16:44:25.834Z,8.90
2023-04-22T16:46:52.422Z,4.95
2023-04-22T16:49:18.991Z,5.78
2023-04-22T16:51:45.736Z,9.35
2023-04-22T16:54:12.398Z,6.97
2023-04-22T16:56:38.907Z,16.42
2023-04-22T16:59:05.499Z,6.97
2023-04-22T17:01:32.103Z,5.43
2023-04-22T17:03:58.977Z,7.18
2023-04-22T17:06:27.452Z,8.60
2023-04-22T17:08:54.143Z,15.23
2023-04-22T17:11:20.670Z,11.23
2023-04-22T17:13:47.184Z,8.38
2023-04-22T17:16:14.161Z,7.80
2023-04-22T17:18:40.822Z,7.53
2023-04-22T17:21:07.379Z,17.17
2023-04-22T17:23:35.721Z,6.90
2023-04-22T17:26:02.271Z,7.22
2023-04-22T17:28:28.768Z,6.90
2023-04-22T17:30:55.392Z,8.23
2023-04-22T17:33:22.074Z,10.90
2023-04-22T17:35:48.624Z,7.72
2023-04-22T17:38:15.431Z,6.90
2023-04-22T17:40:43.771Z,7.03
2023-04-22T17:43:10.594Z,5.45
2023-04-22T17:45:37.145Z,8.00
2023-04-22T17:48:03.841Z,7.50
2023-04-22T17:50:30.627Z,6.00
2023-04-22T17:52:57.269Z,4.30
2023-04-22T17:55:23.829Z,7.68
2023-04-22T17:57:50.374Z,7.07
2023-04-22T18:00:18.123Z,6.40
2023-04-22T18:02:44.817Z,6.47
2023-04-22T18:05:11.517Z,7.45
2023-04-22T18:07:38.015Z,6.45
2023-04-22T18:10:04.928Z,11.30
2023-04-22T18:12:31.546Z,10.13
2023-04-22T18:14:58.633Z,14.23
2023-04-22T18:17:25.255Z,13.18
2023-04-22T18:20:02.674Z,8.82
2023-04-22T18:22:33.001Z,9.57
2023-04-22T18:25:01.908Z,6.88
2023-04-22T18:27:28.709Z,12.20
2023-04-22T18:29:55.318Z,24.42
2023-04-22T18:32:21.923Z,8.93
2023-04-22T18:34:48.493Z,8.82
2023-04-22T18:37:15.021Z,8.00
2023-04-22T18:39:41.520Z,6.93
2023-04-22T18:42:08.115Z,7.78
2023-04-22T18:44:35.579Z,6.82
2023-04-22T18:47:02.101Z,6.20
2023-04-22T18:49:28.622Z,7.30
2023-04-22T18:51:55.198Z,9.23
2023-04-22T18:54:21.771Z,6.05
2023-04-22T18:56:48.339Z,7.53
2023-04-22T18:59:14.864Z,6.60
2023-04-22T19:01:41.602Z,7.00
2023-04-22T19:04:08.279Z,9.48
2023-04-22T19:06:35.085Z,10.68
2023-04-22T19:09:01.741Z,6.38
2023-04-22T19:11:28.449Z,6.22
2023-04-22T19:13:55.007Z,9.80
2023-04-22T19:16:23.641Z,7.45
2023-04-22T19:18:51.607Z,7.60
2023-04-22T19:21:19.799Z,7.20
2023-04-22T19:23:47.010Z,9.48
2023-04-22T19:26:13.601Z,7.43
2023-04-22T19:28:46.940Z,7.63
2023-04-22T19:31:14.365Z,8.18
2023-04-22T19:33:41.130Z,7.68
2023-04-22T19:36:07.722Z,7.72
2023-04-22T19:38:34.954Z,11.05
2023-04-22T19:41:01.813Z,9.45
2023-04-22T19:43:28.413Z,8.38
2023-04-22T19:45:55.067Z,7.93
2023-04-22T19:48:22.028Z,6.80
2023-04-22T19:50:49.291Z,8.48
2023-04-22T19:53:17.865Z,8.20
2023-04-22T19:55:45.200Z,7.60
2023-04-22T19:58:12.481Z,6.45
2023-04-22T20:00:39.781Z,8.50
2023-04-22T20:03:07.236Z,11.25
2023-04-22T20:05:34.212Z,7.97
2023-04-22T20:08:01.890Z,7.88
2023-04-22T20:10:29.121Z,11.13
2023-04-22T20:12:56.097Z,9.38
2023-04-22T20:15:23.099Z,6.82
2023-04-22T20:17:50.299Z,7.63
2023-04-22T20:20:17.818Z,5.82
2023-04-22T20:22:45.989Z,8.45
2023-04-22T20:25:14.994Z,9.65
2023-04-22T20:27:41.970Z,8.35
2023-04-22T20:30:09.950Z,9.05
2023-04-22T20:32:36.969Z,6.75
2023-04-22T20:35:04.614Z,8.35
2023-04-22T20:37:31.931Z,12.48
2023-04-22T20:40:01.893Z,7.93
2023-04-22T20:42:29.017Z,7.75
2023-04-22T20:44:56.227Z,7.75
2023-04-22T20:47:22.740Z,5.72
2023-04-22T20:49:49.348Z,8.68
2023-04-22T20:52:16.435Z,9.80
2023-04-22T20:54:43.458Z,8.48
2023-04-22T20:57:10.181Z,7.53
2023-04-22T20:59:36.980Z,7.35
2023-04-22T21:02:07.194Z,4.47
2023-04-22T21:04:34.668Z,7.35
2023-04-22T21:07:04.058Z,6.97
2023-04-22T21:09:32.704Z,4.63
2023-04-22T21:11:59.655Z,6.03
2023-04-22T21:14:26.948Z,5.63
2023-04-22T21:17:01.500Z,6.50
2023-04-22T21:19:34.642Z,6.78
2023-04-22T21:22:06.218Z,7.70
2023-04-22T21:24:34.978Z,8.63
2023-04-22T21:27:02.035Z,4.43
2023-04-22T21:29:29.076Z,6.90
2023-04-22T21:32:08.075Z,8.38
2023-04-22T21:34:35.870Z,6.50
2023-04-22T21:37:02.707Z,7.68
2023-04-22T21:39:29.709Z,7.25
2023-04-22T21:41:56.716Z,7.20
2023-04-22T21:44:23.272Z,6.93
2023-04-22T21:46:50.054Z,7.13
2023-04-22T21:49:16.616Z,8.30
2023-04-22T21:51:43.191Z,8.65
2023-04-22T21:54:09.714Z,7.45
2023-04-22T21:56:36.393Z,8.00
2023-04-22T21:59:02.983Z,5.40
2023-04-22T22:01:29.593Z,7.30
2023-04-22T22:03:56.398Z,9.82
2023-04-22T22:06:23.006Z,8.65
2023-04-22T22:08:49.640Z,12.07
2023-04-22T22:11:27.458Z,10.05
2023-04-22T22:13:56.781Z,8.32
2023-04-22T22:16:23.453Z,8.43
2023-04-22T22:18:50.618Z,7.78
2023-04-22T22:21:17.589Z,8.30
2023-04-22T22:23:44.127Z,6.70
2023-04-22T22:26:11.115Z,5.43
2023-04-22T22:28:38.045Z,5.35
2023-04-22T22:31:04.675Z,6.05
2023-04-22T22:33:31.277Z,4.75
2023-04-22T22:35:57.867Z,4.43
2023-04-22T22:38:24.531Z,4.72
2023-04-22T22:40:51.176Z,5.03
2023-04-22T22:43:17.733Z,4.78
2023-04-22T22:45:44.487Z,4.97
2023-04-22T22:48:11.302Z,7.05
2023-04-22T22:50:37.922Z,4.47
2023-04-22T22:53:04.549Z,5.97
2023-04-22T22:55:31.104Z,6.18
2023-04-22T22:57:57.919Z,6.28
2023-04-22T23:00:24.515Z,4.25
2023-04-22T23:02:51.264Z,6.35
2023-04-22T23:05:17.923Z,6.95
2023-04-22T23:07:44.584Z,6.78
2023-04-22T23:10:11.209Z,7.43
2023-04-22T23:12:37.873Z,6.00
2023-04-22T23:15:05.561Z,7.45
2023-04-22T23:17:32.299Z,7.80
2023-04-22T23:20:01.281Z,5.53
2023-04-22T23:22:29.786Z,6.13
2023-04-22T23:24:56.833Z,6.65
2023-04-22T23:27:23.563Z,10.55
2023-04-22T23:29:50.419Z,10.18
2023-04-22T23:32:19.552Z,6.45
2023-04-22T23:34:50.411Z,7.57
2023-04-22T23:37:19.208Z,9.48
2023-04-22T23:39:45.948Z,6.55
2023-04-22T23:42:12.575Z,5.78
2023-04-22T23:44:39.300Z,6.72
2023-04-22T23:47:06.420Z,6.50
2023-04-22T23:49:32.993Z,5.38
2023-04-22T23:51:59.614Z,10.57
2023-04-22T23:54:26.858Z,6.38
2023-04-22T23:56:53.807Z,7.55
2023-04-22T23:59:20.691Z,7.22
